Time;durP1;ratioP1;P1;durP2;ratioP2;P2;SDS_P1;SDS_P2;PMS_P1;PMS_P2;Temp;Humidity;BMP_temperature;BMP_pressure;BME280_temperature;BME280_humidity;BME280_pressure;Samples;Min_cycle;Max_cycle;Signal;HPM_P1;HPM_P2
2022/08/15 00:01:14;;;;;;;0.87;0.87;;;;;;;23.28;35.18;101060.47;5055881;28;19939;-68
2022/08/15 00:03:45;;;;;;;0.98;0.90;;;;;;;23.24;35.28;101062.06;5056152;28;20278;-67
2022/08/15 00:06:13;;;;;;;0.80;0.80;;;;;;;23.21;35.30;101049.75;5058679;28;20028;-67
2022/08/15 00:08:42;;;;;;;0.80;0.80;;;;;;;23.21;35.30;101054.38;5041165;28;20075;-68
2022/08/15 00:11:10;;;;;;;0.75;0.75;;;;;;;23.21;35.58;101054.38;5053648;28;20029;-68
2022/08/15 00:13:37;;;;;;;0.73;0.70;;;;;;;23.21;35.40;101052.47;5052833;28;20025;-68
2022/08/15 00:16:04;;;;;;;0.85;0.85;;;;;;;23.20;35.41;101050.03;5052835;28;20336;-68
2022/08/15 00:18:30;;;;;;;0.77;0.77;;;;;;;23.22;35.51;101047.88;5052739;28;20482;-69
2022/08/15 00:20:55;;;;;;;0.60;0.60;;;;;;;23.18;35.08;101046.72;5052580;28;20472;-67
2022/08/15 00:23:22;;;;;;;0.60;0.60;;;;;;;23.19;35.19;101045.66;5052814;28;20101;-67
2022/08/15 00:25:49;;;;;;;0.63;0.63;;;;;;;23.20;35.08;101058.22;5054322;28;20025;-69
2022/08/15 00:28:14;;;;;;;0.68;0.63;;;;;;;23.21;35.13;101054.38;5056566;28;20120;-68
2022/08/15 00:30:40;;;;;;;0.70;0.70;;;;;;;23.21;35.18;101059.84;5056283;28;20111;-68
2022/08/15 00:33:06;;;;;;;0.82;0.82;;;;;;;23.20;35.33;101059.03;5066832;28;20052;-68
2022/08/15 00:35:39;;;;;;;0.65;0.60;;;;;;;23.20;35.09;101052.75;5076119;28;20366;-68
2022/08/15 00:38:08;;;;;;;0.60;0.60;;;;;;;23.19;35.27;101059.28;5076087;28;20029;-69
2022/08/15 00:41:39;;;;;;;0.88;0.88;;;;;;;23.20;35.29;101052.75;5076350;28;20024;-68
2022/08/15 00:43:20;;;;;;;0.52;0.52;;;;;;;23.21;35.03;101066.09;5076123;28;20427;-68
2022/08/15 00:45:45;;;;;;;0.80;0.80;;;;;;;23.20;35.18;101052.75;5075911;28;20051;-68
2022/08/15 00:50:55;;;;;;;0.90;0.88;;;;;;;23.20;35.15;101055.50;5075998;28;20548;-68
2022/08/15 00:53:20;;;;;;;0.73;0.73;;;;;;;23.19;35.23;101048.38;5076038;28;20028;-68
2022/08/15 00:55:46;;;;;;;0.60;0.60;;;;;;;23.19;35.20;101045.66;5075768;28;20379;-68
2022/08/15 00:58:11;;;;;;;0.80;0.80;;;;;;;23.19;35.25;101046.47;5075611;28;20032;-68
2022/08/15 01:00:39;;;;;;;0.70;0.70;;;;;;;23.19;34.92;101051.09;5075958;28;20020;-68
2022/08/15 01:03:09;;;;;;;0.60;0.60;;;;;;;23.18;35.12;101057.63;5075498;28;20097;-68
2022/08/15 01:05:35;;;;;;;0.80;0.80;;;;;;;23.20;35.09;101058.22;5075939;28;20104;-68
2022/08/15 01:08:00;;;;;;;0.63;0.63;;;;;;;23.19;34.97;101056.56;5075540;28;20051;-68
2022/08/15 01:10:26;;;;;;;0.90;0.73;;;;;;;23.18;34.95;101052.16;5075716;28;20028;-68
2022/08/15 01:12:51;;;;;;;0.65;0.65;;;;;;;23.18;35.07;101050.28;5075527;28;20028;-68
2022/08/15 01:15:17;;;;;;;0.80;0.80;;;;;;;23.19;35.02;101051.09;5075358;28;20107;-69
2022/08/15 01:17:44;;;;;;;0.65;0.65;;;;;;;23.18;35.09;101050.28;5075309;28;20025;-68
2022/08/15 01:20:21;;;;;;;0.70;0.70;;;;;;;23.18;34.97;101044.00;5075498;28;20064;-68
2022/08/15 01:22:58;;;;;;;0.70;0.70;;;;;;;23.18;34.96;101044.00;5042033;28;20028;-68
2022/08/15 01:25:28;;;;;;;0.63;0.63;;;;;;;23.17;34.93;101048.63;5058122;28;20024;-68
2022/08/15 01:28:01;;;;;;;0.60;0.60;;;;;;;23.18;34.88;101049.44;5057504;28;20028;-68
2022/08/15 01:30:32;;;;;;;0.82;0.70;;;;;;;23.17;34.93;101053.25;5057498;28;20028;-68
2022/08/15 01:32:58;;;;;;;0.60;0.60;;;;;;;23.18;34.99;101046.72;5074734;28;20431;-68
2022/08/15 01:35:24;;;;;;;0.90;0.80;;;;;;;23.17;35.08;101047.81;5075306;28;20112;-68
2022/08/15 01:37:51;;;;;;;0.60;0.60;;;;;;;23.16;34.83;101040.69;5073794;28;20052;-68
2022/08/15 01:40:24;;;;;;;0.70;0.70;;;;;;;23.15;35.13;101045.34;5074888;28;20103;-68
2022/08/15 01:42:50;;;;;;;0.70;0.70;;;;;;;23.17;34.83;101042.34;5057445;28;20029;-68
2022/08/15 01:45:18;;;;;;;0.70;0.70;;;;;;;23.16;34.96;101038.81;5040745;28;20028;-68
2022/08/15 01:47:52;;;;;;;0.60;0.60;;;;;;;23.17;34.97;101036.91;5074963;28;20028;-68
2022/08/15 01:50:23;;;;;;;0.70;0.70;;;;;;;23.17;34.86;101037.72;5058048;28;20048;-68
2022/08/15 01:53:00;;;;;;;0.70;0.70;;;;;;;23.17;34.96;101036.91;5075033;28;20028;-68
2022/08/15 01:55:29;;;;;;;0.70;0.70;;;;;;;23.17;34.66;101036.91;5075092;28;20064;-68
2022/08/15 01:57:54;;;;;;;0.68;0.68;;;;;;;23.16;34.91;101030.63;5077207;28;20115;-68
2022/08/15 02:00:20;;;;;;;0.60;0.60;;;;;;;23.18;34.86;101044.00;5075114;28;20016;-68
2022/08/15 02:02:45;;;;;;;0.60;0.60;;;;;;;23.17;34.65;101036.91;5074774;28;20469;-68
2022/08/15 02:05:11;;;;;;;0.60;0.60;;;;;;;23.16;34.66;101036.09;5074687;28;20415;-68
2022/08/15 02:07:36;;;;;;;0.82;0.70;;;;;;;23.16;34.64;101041.53;5074708;28;20070;-68
2022/08/15 02:10:02;;;;;;;0.60;0.60;;;;;;;23.14;34.78;101032.78;5074701;28;20422;-68
2022/08/15 02:12:30;;;;;;;0.70;0.70;;;;;;;23.14;34.83;101032.78;5074241;28;20063;-68
2022/08/15 02:14:57;;;;;;;0.52;0.52;;;;;;;23.13;34.93;101031.16;5074448;28;20063;-68
2022/08/15 02:17:22;;;;;;;0.60;0.60;;;;;;;23.14;34.77;101030.06;5074488;28;20128;-68
2022/08/15 02:19:48;;;;;;;0.70;0.70;;;;;;;23.15;34.74;101030.91;5074013;28;20470;-69
2022/08/15 02:22:16;;;;;;;0.57;0.57;;;;;;;23.13;34.88;101030.31;5074587;28;20074;-68
2022/08/15 02:24:41;;;;;;;0.85;0.55;;;;;;;23.15;34.73;101028.16;5074365;28;20035;-68
2022/08/15 02:27:07;;;;;;;0.70;0.70;;;;;;;23.14;34.80;101019.16;5074101;28;20389;-68
2022/08/15 02:29:32;;;;;;;0.57;0.57;;;;;;;23.14;34.84;101021.06;5074499;28;20104;-68
2022/08/15 02:32:01;;;;;;;0.60;0.60;;;;;;;23.13;34.70;101020.25;5056247;28;20037;-68
2022/08/15 02:34:26;;;;;;;0.60;0.60;;;;;;;23.13;34.82;101024.84;5056621;28;20047;-68
2022/08/15 02:36:52;;;;;;;0.70;0.70;;;;;;;23.14;35.07;101023.78;5082859;28;20021;-68
2022/08/15 02:39:18;;;;;;;0.50;0.50;;;;;;;23.14;34.96;101023.78;5067186;28;20025;-68
2022/08/15 02:41:50;;;;;;;0.50;0.50;;;;;;;23.14;34.81;101021.06;5084911;28;20051;-68
2022/08/15 02:44:16;;;;;;;0.60;0.60;;;;;;;23.13;34.77;101020.25;5084716;28;20027;-68
2022/08/15 02:46:43;;;;;;;0.52;0.52;;;;;;;23.12;34.85;101013.13;5085192;28;20020;-68
2022/08/15 02:49:11;;;;;;;0.80;0.80;;;;;;;23.14;34.71;101021.06;5084643;28;20048;-68
2022/08/15 02:51:39;;;;;;;1.67;0.70;;;;;;;23.13;34.84;101016.66;5079788;28;20450;-67
2022/08/15 02:54:05;;;;;;;0.80;0.60;;;;;;;23.12;34.80;101017.78;5074582;28;20024;-67
2022/08/15 02:56:31;;;;;;;0.60;0.60;;;;;;;23.11;34.74;101021.56;5074358;28;20470;-67
2022/08/15 02:58:57;;;;;;;0.93;0.70;;;;;;;23.13;34.92;101024.84;5073761;28;20090;-67
2022/08/15 03:01:22;;;;;;;0.60;0.60;;;;;;;23.13;34.85;101016.66;5074000;28;20040;-67
2022/08/15 03:03:49;;;;;;;0.70;0.68;;;;;;;23.12;34.85;101018.59;5073737;28;20028;-67
2022/08/15 03:06:17;;;;;;;0.68;0.68;;;;;;;23.11;34.81;101022.41;5073697;28;20078;-67
2022/08/15 03:08:43;;;;;;;0.60;0.60;;;;;;;23.12;34.85;101028.66;5073743;28;20471;-68
2022/08/15 03:11:08;;;;;;;0.50;0.50;;;;;;;23.10;35.00;101020.75;5073768;28;20024;-68
2022/08/15 03:13:35;;;;;;;0.60;0.60;;;;;;;23.11;34.72;101021.56;5073602;28;20083;-68
2022/08/15 03:16:00;;;;;;;0.65;0.65;;;;;;;23.13;34.96;101030.31;5073730;28;20048;-68
2022/08/15 03:18:28;;;;;;;0.60;0.60;;;;;;;23.11;34.92;101027.00;5073454;28;20074;-68
2022/08/15 03:20:53;;;;;;;0.70;0.70;;;;;;;23.11;35.07;101027.00;5073772;28;20546;-68
2022/08/15 03:23:20;;;;;;;0.68;0.68;;;;;;;23.09;34.86;101029.19;5073030;28;20031;-68
2022/08/15 03:25:48;;;;;;;0.60;0.60;;;;;;;23.10;35.09;101018.03;5073508;28;20032;-68
2022/08/15 03:28:15;;;;;;;0.60;0.60;;;;;;;23.09;35.00;101018.28;5073170;28;20498;-68
2022/08/15 03:30:41;;;;;;;0.90;0.70;;;;;;;23.08;35.03;101022.06;5073106;28;20037;-68
2022/08/15 03:33:06;;;;;;;0.50;0.50;;;;;;;23.10;35.20;101025.38;5073131;28;20113;-68
2022/08/15 03:35:37;;;;;;;0.60;0.60;;;;;;;23.09;35.22;101016.38;5073001;28;20035;-68
2022/08/15 03:38:02;;;;;;;0.60;0.60;;;;;;;23.11;35.24;101013.38;5073311;28;20090;-68
2022/08/15 03:40:28;;;;;;;0.60;0.60;;;;;;;23.10;35.36;101015.28;5073303;28;20398;-68
2022/08/15 03:42:57;;;;;;;0.93;0.60;;;;;;;23.10;35.47;101026.19;5073106;28;20115;-68
2022/08/15 03:45:23;;;;;;;0.70;0.70;;;;;;;23.10;35.52;101026.19;5073250;28;20090;-68
2022/08/15 03:47:48;;;;;;;0.80;0.80;;;;;;;23.13;35.51;101024.84;5073239;28;20451;-67
2022/08/15 03:50:14;;;;;;;0.60;0.60;;;;;;;23.13;35.49;101019.41;5073131;28;20020;-67
2022/08/15 03:52:53;;;;;;;0.60;0.60;;;;;;;23.13;35.68;101019.41;5073254;28;20025;-67
2022/08/15 03:55:20;;;;;;;0.50;0.50;;;;;;;23.14;35.68;101021.06;5073276;28;20033;-67
2022/08/15 03:57:46;;;;;;;0.75;0.75;;;;;;;23.12;35.74;101017.78;5055279;28;20049;-68
2022/08/15 04:00:13;;;;;;;0.50;0.50;;;;;;;23.12;35.99;101025.94;5073685;28;20054;-68
2022/08/15 04:02:38;;;;;;;0.75;0.75;;;;;;;23.14;36.12;101026.50;5077233;28;20017;-68
2022/08/15 04:05:04;;;;;;;0.80;0.60;;;;;;;23.13;36.32;101022.97;5076858;28;20028;-67
2022/08/15 04:07:32;;;;;;;0.55;0.55;;;;;;;23.17;36.43;101020.56;5077342;28;20084;-67
2022/08/15 04:09:58;;;;;;;0.60;0.60;;;;;;;23.16;36.32;101021.63;5076482;28;20051;-67
2022/08/15 04:12:35;;;;;;;0.60;0.60;;;;;;;23.18;36.42;101022.19;5076464;28;20024;-67
2022/08/15 04:15:05;;;;;;;0.85;0.60;;;;;;;23.20;36.57;101009.13;5076776;28;20025;-69
2022/08/15 04:17:30;;;;;;;0.60;0.60;;;;;;;23.19;37.04;101013.75;5077222;28;20404;-67
2022/08/15 04:19:56;;;;;;;1.63;0.70;;;;;;;23.25;37.23;101006.47;5060972;28;20032;-67
2022/08/15 04:22:34;;;;;;;0.70;0.70;;;;;;;23.27;37.03;101012.47;5056364;28;20032;-67
2022/08/15 04:25:01;;;;;;;0.88;0.88;;;;;;;23.34;37.36;101017.72;5056500;28;20036;-68
2022/08/15 04:27:26;;;;;;;0.77;0.70;;;;;;;23.37;37.52;101020.75;5056203;28;20095;-68
2022/08/15 04:29:52;;;;;;;0.70;0.70;;;;;;;23.39;37.80;101024.03;5056227;28;20072;-67
2022/08/15 04:32:18;;;;;;;1.10;0.80;;;;;;;23.40;37.72;101016.69;5059777;28;20044;-66
2022/08/15 04:34:43;;;;;;;1.40;0.77;;;;;;;23.42;38.22;101015.34;5058358;28;20489;-68
2022/08/15 04:37:09;;;;;;;0.60;0.60;;;;;;;23.43;38.56;101019.72;5076471;28;20032;-67
2022/08/15 04:39:34;;;;;;;0.70;0.70;;;;;;;23.43;38.28;101014.25;5076516;28;20470;-67
2022/08/15 04:42:01;;;;;;;0.88;0.88;;;;;;;23.41;38.78;101019.16;5076742;28;20082;-67
2022/08/15 04:44:26;;;;;;;0.70;0.70;;;;;;;23.47;39.34;101016.47;5077112;28;20020;-68
2022/08/15 04:46:52;;;;;;;0.70;0.70;;;;;;;23.48;39.25;101015.41;5077817;28;20082;-67
2022/08/15 04:49:18;;;;;;;1.65;0.90;;;;;;;23.44;39.84;101007.72;5080332;28;20028;-68
2022/08/15 04:51:44;;;;;;;0.80;0.80;;;;;;;23.50;39.71;101024.16;5088500;28;20025;-67
2022/08/15 04:54:10;;;;;;;0.80;0.80;;;;;;;23.52;39.80;101022.78;5081819;28;20115;-69
2022/08/15 04:56:36;;;;;;;0.80;0.80;;;;;;;23.52;39.86;101011.06;5063583;28;20116;-67
2022/08/15 04:59:02;;;;;;;1.02;1.00;;;;;;;23.53;41.26;101012.72;5076564;28;20091;-68
2022/08/15 05:01:27;;;;;;;0.95;0.90;;;;;;;23.55;40.21;101014.09;5076013;28;20465;-68
2022/08/15 05:03:53;;;;;;;1.08;0.98;;;;;;;23.53;40.41;101012.72;5075857;28;20025;-69
2022/08/15 05:06:18;;;;;;;0.98;0.93;;;;;;;23.54;41.02;100997.97;5075781;28;20024;-68
2022/08/15 05:08:44;;;;;;;0.93;0.85;;;;;;;23.53;41.10;101012.72;5075627;28;20056;-68
2022/08/15 05:11:12;;;;;;;0.88;0.88;;;;;;;23.54;41.59;101015.19;5075398;28;20017;-68
2022/08/15 05:13:38;;;;;;;1.20;1.10;;;;;;;23.56;41.61;101021.22;5057589;28;20029;-68
2022/08/15 05:16:07;;;;;;;1.10;1.00;;;;;;;23.55;41.11;101016.00;5075427;28;20450;-68
2022/08/15 05:18:34;;;;;;;0.95;0.90;;;;;;;23.60;41.94;101016.06;5074915;28;20025;-68
2022/08/15 05:20:59;;;;;;;2.15;1.20;;;;;;;23.58;42.86;101020.94;5057195;28;20035;-68
2022/08/15 05:23:25;;;;;;;1.08;1.08;;;;;;;23.62;42.66;101022.88;5075040;28;20032;-68
2022/08/15 05:25:53;;;;;;;1.10;1.00;;;;;;;23.58;42.03;101018.22;5074846;28;20024;-68
2022/08/15 05:28:19;;;;;;;1.33;1.10;;;;;;;23.68;42.64;101021.03;5074895;28;20039;-68
2022/08/15 05:30:44;;;;;;;1.30;1.20;;;;;;;23.59;43.12;101017.13;5074813;28;20032;-69
2022/08/15 05:33:36;;;;;;;1.35;1.20;;;;;;;23.57;43.44;101027.47;5063928;28;20056;-70
2022/08/15 05:36:02;;;;;;;2.40;1.50;;;;;;;23.59;42.85;101017.13;5049981;28;20064;-68
2022/08/15 05:38:34;;;;;;;1.00;0.90;;;;;;;23.61;43.22;101017.69;5037272;28;20021;-69
2022/08/15 05:41:03;;;;;;;1.42;1.20;;;;;;;23.63;43.67;101021.00;5055014;28;20025;-68
2022/08/15 05:43:32;;;;;;;1.00;0.93;;;;;;;23.69;43.68;101017.22;5054519;28;20487;-67
2022/08/15 05:46:00;;;;;;;1.20;1.10;;;;;;;23.69;43.95;101008.22;5036919;28;20049;-67
2022/08/15 05:48:31;;;;;;;2.15;1.77;;;;;;;23.67;44.34;101013.13;5054195;28;20498;-67
2022/08/15 05:51:09;;;;;;;1.27;1.17;;;;;;;23.65;44.12;101015.28;5036906;28;20021;-67
2022/08/15 05:54:14;;;;;;;0.95;0.88;;;;;;;23.67;44.34;101010.38;5036848;28;20033;-67
2022/08/15 05:56:59;;;;;;;1.23;1.13;;;;;;;23.67;43.92;101013.13;5031787;28;20041;-67
2022/08/15 05:59:38;;;;;;;1.33;1.23;;;;;;;23.71;45.36;101020.50;5054444;28;20052;-68
2022/08/15 06:02:17;;;;;;;1.80;1.20;;;;;;;23.68;44.58;101010.13;5036934;28;20079;-68
2022/08/15 06:04:46;;;;;;;1.30;1.10;;;;;;;23.71;44.45;101023.22;5036451;28;20102;-67
2022/08/15 06:07:14;;;;;;;1.38;1.27;;;;;;;23.70;44.48;101018.03;5036149;28;20029;-68
2022/08/15 06:09:40;;;;;;;1.23;1.13;;;;;;;23.76;44.58;101019.72;5036579;28;20383;-68
2022/08/15 06:12:12;;;;;;;1.83;1.20;;;;;;;23.70;44.83;101018.88;5036433;28;20025;-68
2022/08/15 06:14:48;;;;;;;3.75;1.20;;;;;;;23.69;44.78;101016.41;5020361;28;20103;-68
2022/08/15 06:17:42;;;;;;;2.03;1.23;;;;;;;23.74;45.43;101017.25;5053743;28;20025;-68
2022/08/15 06:20:09;;;;;;;1.70;1.20;;;;;;;23.71;44.97;101015.03;5026985;28;20426;-67
2022/08/15 06:23:05;;;;;;;10.95;6.57;;;;;;;23.79;45.81;101016.47;5019499;28;20083;-67
2022/08/15 06:25:50;;;;;;;22.33;13.77;;;;;;;23.80;45.50;101018.94;5054682;28;20036;-68
2022/08/15 06:28:25;;;;;;;158.90;68.40;;;;;;;23.73;45.34;101012.91;5054460;28;20029;-68
2022/08/15 06:30:57;;;;;;;65.28;29.42;;;;;;;23.76;45.37;101012.34;5053966;28;20037;-68
2022/08/15 06:33:33;;;;;;;31.58;15.55;;;;;;;23.76;45.69;101012.34;5046271;28;20071;-69
2022/08/15 06:36:22;;;;;;;25.13;11.73;;;;;;;23.75;45.86;101021.66;5073939;28;20040;-68
2022/08/15 06:39:09;;;;;;;12.30;6.53;;;;;;;23.79;45.63;101011.84;5072943;28;20092;-67
2022/08/15 06:42:04;;;;;;;12.80;5.70;;;;;;;23.89;45.35;101004.88;5073694;28;20044;-69
2022/08/15 06:44:31;;;;;;;17.08;3.90;;;;;;;23.85;45.39;101009.19;5065925;28;20120;-68
2022/08/15 06:47:04;;;;;;;12.00;3.67;;;;;;;23.77;45.77;100996.81;5072901;28;20024;-68
2022/08/15 06:49:36;;;;;;;10.93;3.38;;;;;;;23.89;45.82;101011.13;5056016;28;20047;-68
2022/08/15 06:52:02;;;;;;;6.53;2.92;;;;;;;23.85;45.49;101004.53;5039153;28;20352;-68
2022/08/15 06:54:28;;;;;;;4.45;2.78;;;;;;;23.90;45.82;101011.94;5073371;28;20107;-68
2022/08/15 06:56:54;;;;;;;7.68;2.65;;;;;;;23.90;45.76;101006.50;5072714;28;20027;-69
2022/08/15 06:59:36;;;;;;;13.93;5.97;;;;;;;23.88;46.06;101001.28;5073066;28;20033;-69
2022/08/15 07:02:23;;;;;;;10.90;5.05;;;;;;;23.91;46.05;101005.41;5055488;28;20115;-68
2022/08/15 07:05:12;;;;;;;16.60;6.90;;;;;;;23.99;46.39;101000.28;5072989;28;20120;-69
2022/08/15 07:07:45;;;;;;;14.82;5.90;;;;;;;23.95;46.54;101009.25;5061824;28;20071;-68
2022/08/15 07:10:13;;;;;;;14.35;5.30;;;;;;;23.98;46.74;101006.00;5055194;28;20033;-69
2022/08/15 07:12:50;;;;;;;9.82;4.22;;;;;;;24.05;46.92;101003.88;5072673;28;20040;-68
2022/08/15 07:15:20;;;;;;;6.60;3.38;;;;;;;24.02;46.68;100998.94;5055372;28;20077;-68
2022/08/15 07:17:50;;;;;;;5.80;2.70;;;;;;;24.03;46.96;100991.59;5072343;28;20021;-69
2022/08/15 07:20:17;;;;;;;4.88;2.55;;;;;;;24.09;46.47;100998.69;5072814;28;20020;-68
2022/08/15 07:22:43;;;;;;;4.90;2.47;;;;;;;24.10;46.87;101000.34;5072579;28;20021;-68
2022/08/15 07:25:16;;;;;;;3.78;2.40;;;;;;;24.08;47.37;100997.88;5073092;28;20090;-68
2022/08/15 07:27:43;;;;;;;4.50;3.07;;;;;;;24.08;47.25;100997.88;5073283;28;20103;-67
2022/08/15 07:30:20;;;;;;;6.15;3.08;;;;;;;24.10;47.80;100990.25;5055575;28;20032;-70
2022/08/15 07:32:46;;;;;;;4.93;2.90;;;;;;;24.08;47.82;100997.88;5054833;28;20045;-69
2022/08/15 07:35:14;;;;;;;6.07;2.90;;;;;;;24.14;47.55;100991.34;5075672;28;20047;-68
2022/08/15 07:37:49;;;;;;;4.75;2.13;;;;;;;24.14;47.79;100996.00;5078910;28;20040;-67
2022/08/15 07:40:30;;;;;;;3.15;2.05;;;;;;;24.16;47.87;100993.81;5060772;28;20043;-67
2022/08/15 07:42:56;;;;;;;2.78;1.85;;;;;;;24.16;47.63;100993.81;5077296;28;20025;-67
2022/08/15 07:45:37;;;;;;;2.50;1.75;;;;;;;24.13;47.78;100995.19;5060383;28;20044;-68
2022/08/15 07:48:05;;;;;;;4.03;2.20;;;;;;;24.22;47.48;100997.44;5076962;28;20021;-68
2022/08/15 07:50:38;;;;;;;2.95;1.80;;;;;;;24.16;47.88;100991.94;5076745;28;20383;-68
2022/08/15 07:53:19;;;;;;;2.15;1.73;;;;;;;24.24;47.35;100995.25;5058422;28;20024;-67
2022/08/15 07:56:04;;;;;;;2.03;1.60;;;;;;;24.22;47.57;100991.97;5043073;28;20071;-67
2022/08/15 07:58:31;;;;;;;2.22;1.40;;;;;;;24.23;47.98;101002.59;5076488;28;20080;-67
2022/08/15 08:01:11;;;;;;;2.08;1.70;;;;;;;24.28;47.82;101001.81;5076506;28;20027;-67
2022/08/15 08:03:37;;;;;;;1.50;1.40;;;;;;;24.21;48.01;100990.31;5076283;28;20115;-68
2022/08/15 08:06:19;;;;;;;2.92;1.70;;;;;;;24.27;48.54;100997.47;5058343;28;20024;-69
2022/08/15 08:08:50;;;;;;;2.00;1.67;;;;;;;24.24;48.17;101000.72;5058726;28;20024;-69
2022/08/15 08:11:46;;;;;;;1.58;1.45;;;;;;;24.35;47.71;101005.13;5044134;28;20067;-68
2022/08/15 08:14:18;;;;;;;2.20;1.60;;;;;;;24.35;47.67;101002.41;5078136;28;20027;-69
2022/08/15 08:16:54;;;;;;;2.28;1.70;;;;;;;24.31;47.88;101010.31;5076452;28;20204;-69
2022/08/15 08:19:55;;;;;;;1.50;1.40;;;;;;;24.32;47.58;101008.41;5060681;28;20047;-69
2022/08/15 08:22:32;;;;;;;2.63;1.55;;;;;;;24.40;47.72;101013.34;5058207;28;20086;-68
2022/08/15 08:25:13;;;;;;;1.65;1.55;;;;;;;24.38;47.36;101008.16;5076228;28;20043;-67
2022/08/15 08:28:02;;;;;;;1.40;1.30;;;;;;;24.37;47.62;101005.72;5062199;28;20479;-67
2022/08/15 08:30:36;;;;;;;1.40;1.30;;;;;;;24.34;47.46;100995.31;5067201;28;20135;-67
2022/08/15 08:33:13;;;;;;;1.70;1.27;;;;;;;24.41;47.72;101012.28;5041411;28;20548;-68
2022/08/15 08:35:59;;;;;;;1.60;1.50;;;;;;;24.40;47.87;101005.16;5076093;28;20039;-68
2022/08/15 08:38:48;;;;;;;1.48;1.38;;;;;;;24.42;47.52;101008.44;5058154;28;20028;-67
2022/08/15 08:41:25;;;;;;;1.63;1.52;;;;;;;24.42;47.79;101011.16;5075805;28;20028;-67
2022/08/15 08:43:59;;;;;;;1.40;1.30;;;;;;;24.41;47.99;100998.63;5075418;28;20103;-66
2022/08/15 08:46:29;;;;;;;1.85;1.58;;;;;;;24.38;48.15;100996.41;5074892;28;20029;-67
2022/08/15 08:49:13;;;;;;;1.50;1.40;;;;;;;24.43;47.88;100992.91;5075234;28;20025;-67
2022/08/15 08:52:02;;;;;;;1.48;1.38;;;;;;;24.43;48.14;100993.72;5057601;28;20028;-67
2022/08/15 08:54:49;;;;;;;1.70;1.60;;;;;;;24.42;48.28;100994.78;5075236;28;20463;-68
2022/08/15 08:57:16;;;;;;;2.58;1.75;;;;;;;24.44;48.40;100978.13;5076335;28;20409;-67
2022/08/15 08:59:55;;;;;;;1.70;1.60;;;;;;;24.45;48.06;100982.50;5040973;28;20021;-67
2022/08/15 09:02:29;;;;;;;1.80;1.50;;;;;;;24.44;48.45;100981.69;5057881;28;20389;-68
2022/08/15 09:05:07;;;;;;;2.17;1.88;;;;;;;24.43;48.42;100979.22;5041873;28;20171;-67
2022/08/15 09:07:34;;;;;;;1.65;1.40;;;;;;;24.44;48.41;100983.59;5059162;28;20021;-68
2022/08/15 09:10:00;;;;;;;3.33;1.67;;;;;;;24.46;48.59;100974.06;5040493;28;20094;-68
2022/08/15 09:15:25;;;;;;;1.83;1.58;;;;;;;24.44;48.66;100968.03;5045951;28;20091;-69
2022/08/15 09:17:54;;;;;;;2.08;1.70;;;;;;;24.45;48.77;100966.94;5075141;28;20040;-69
2022/08/15 09:20:23;;;;;;;1.60;1.50;;;;;;;24.45;48.82;100964.22;5057213;28;20028;-68
2022/08/15 09:22:48;;;;;;;1.63;1.50;;;;;;;24.48;48.82;100963.69;5057491;28;20463;-68
2022/08/15 09:25:14;;;;;;;1.50;1.40;;;;;;;24.53;48.36;100958.22;5075151;28;20070;-68
2022/08/15 09:27:42;;;;;;;1.65;1.55;;;;;;;24.50;48.96;100956.03;5075162;28;20374;-68
2022/08/15 09:30:09;;;;;;;1.73;1.63;;;;;;;24.49;48.87;100943.47;5075005;28;20028;-68
2022/08/15 09:33:02;;;;;;;3.25;1.63;;;;;;;24.48;48.85;100946.47;5056832;28;20049;-68
2022/08/15 09:35:45;;;;;;;2.38;1.50;;;;;;;24.53;48.79;100947.31;5074617;28;20111;-68
2022/08/15 09:38:26;;;;;;;1.73;1.63;;;;;;;24.51;48.78;100940.47;5057017;28;20029;-68
2022/08/15 09:41:20;;;;;;;1.63;1.52;;;;;;;24.54;48.74;100937.22;5074747;28;20032;-67
2022/08/15 09:44:06;;;;;;;2.47;1.50;;;;;;;24.61;48.92;100943.28;5074708;28;20040;-69
2022/08/15 09:46:46;;;;;;;3.70;1.92;;;;;;;24.60;48.83;100938.09;5074611;28;20036;-67
2022/08/15 09:49:21;;;;;;;4.05;2.25;;;;;;;24.60;48.81;100938.91;5057929;28;20039;-67
2022/08/15 09:51:58;;;;;;;2.00;1.67;;;;;;;24.53;48.95;100932.84;5074718;28;20036;-69
2022/08/15 09:54:25;;;;;;;6.43;3.28;;;;;;;24.58;48.77;100935.63;5074607;28;20155;-69
2022/08/15 09:56:52;;;;;;;4.20;2.70;;;;;;;24.55;48.88;100925.22;5056531;28;20017;-69
2022/08/15 09:59:25;;;;;;;4.20;2.60;;;;;;;24.57;49.15;100922.22;5039291;28;20020;-68
2022/08/15 10:01:50;;;;;;;3.78;2.67;;;;;;;24.59;49.23;100931.78;5059377;28;20033;-69
2022/08/15 10:04:18;;;;;;;7.13;3.33;;;;;;;24.56;49.29;100918.69;5077215;28;20040;-69
2022/08/15 10:07:01;;;;;;;6.97;3.65;;;;;;;24.66;49.03;100926.06;5045330;28;20076;-70
2022/08/15 10:09:31;;;;;;;6.60;3.75;;;;;;;24.64;49.19;100928.25;5081462;28;20463;-69
2022/08/15 10:12:03;;;;;;;7.57;4.35;;;;;;;24.68;48.90;100919.25;5084411;28;20094;-69
2022/08/15 10:14:51;;;;;;;7.07;4.13;;;;;;;24.68;48.95;100923.88;5086132;28;20029;-68
2022/08/15 10:17:33;;;;;;;7.50;4.18;;;;;;;24.74;48.91;100928.28;4976079;28;20038;-67
2022/08/15 10:20:15;;;;;;;8.60;4.22;;;;;;;24.70;49.07;100913.53;4972920;28;20480;-68
2022/08/15 10:23:01;;;;;;;6.90;3.90;;;;;;;24.73;48.93;100910.22;4959081;28;20539;-69
2022/08/15 10:25:36;;;;;;;7.57;3.15;;;;;;;24.73;48.79;100921.16;4962477;28;20068;-69
2022/08/15 10:28:10;;;;;;;6.05;3.30;;;;;;;24.83;48.35;100920.38;4957278;28;20138;-69
2022/08/15 10:30:46;;;;;;;6.40;2.38;;;;;;;24.72;48.95;100914.06;4972848;28;20030;-69
2022/08/15 10:33:36;;;;;;;4.88;2.60;;;;;;;24.75;48.65;100905.34;4972432;28;20054;-70
2022/08/15 10:36:15;;;;;;;3.80;2.33;;;;;;;24.72;48.51;100898.47;4972941;28;20050;-69
2022/08/15 10:38:51;;;;;;;9.23;4.03;;;;;;;24.77;48.61;100905.03;4956468;28;20031;-68
2022/08/15 10:41:44;;;;;;;20.65;8.35;;;;;;;24.81;48.37;100912.44;4956664;28;20039;-69
2022/08/15 10:44:09;;;;;;;26.65;10.50;;;;;;;24.81;48.18;100906.97;4896704;29;20199;-69
2022/08/15 10:47:04;;;;;;;27.55;10.35;;;;;;;24.82;48.39;100919.56;4896102;29;20131;-70
2022/08/15 10:49:51;;;;;;;19.25;8.25;;;;;;;24.84;48.22;100922.03;4896087;29;20055;-70
2022/08/15 10:53:04;;;;;;;15.05;6.47;;;;;;;24.83;48.02;100917.63;4895737;29;20040;-70
2022/08/15 10:55:39;;;;;;;12.27;4.85;;;;;;;24.85;48.31;100929.97;4981038;28;20034;-69
2022/08/15 10:58:09;;;;;;;10.93;4.65;;;;;;;24.90;47.90;100923.66;4991257;28;20034;-69
2022/08/15 11:00:44;;;;;;;7.90;4.18;;;;;;;24.88;48.09;100934.03;4991489;28;20034;-70
2022/08/15 11:03:34;;;;;;;8.25;3.53;;;;;;;24.96;47.50;100929.94;4991958;28;20030;-69
2022/08/15 11:06:04;;;;;;;7.45;3.08;;;;;;;24.92;47.70;100935.97;4992084;28;20035;-69
2022/08/15 11:08:29;;;;;;;5.82;3.00;;;;;;;24.97;47.20;100931.59;4991765;28;20058;-69
2022/08/15 11:11:08;;;;;;;5.47;2.78;;;;;;;24.99;47.56;100934.88;4991507;28;20031;-68
2022/08/15 11:13:35;;;;;;;4.22;2.60;;;;;;;24.98;47.37;100934.06;4991786;28;20026;-68
2022/08/15 11:16:15;;;;;;;5.05;2.47;;;;;;;24.96;47.06;100924.47;4975651;28;20104;-69
2022/08/15 11:18:54;;;;;;;4.57;2.30;;;;;;;24.96;47.44;100925.31;4975728;28;20049;-69
2022/08/15 11:21:39;;;;;;;3.58;2.33;;;;;;;24.97;47.04;100921.47;5020156;28;20109;-69
2022/08/15 11:24:06;;;;;;;3.17;1.90;;;;;;;24.95;47.30;100923.66;5055353;28;20036;-70
2022/08/15 11:26:34;;;;;;;2.78;1.90;;;;;;;24.89;47.33;100920.09;5073264;28;20027;-69
2022/08/15 11:29:26;;;;;;;3.50;2.00;;;;;;;24.99;46.82;100923.94;5073774;28;20461;-72
2022/08/15 11:32:00;;;;;;;2.75;1.75;;;;;;;24.99;46.88;100923.94;5051474;28;20056;-71
2022/08/15 11:34:27;;;;;;;1.90;1.70;;;;;;;25.01;46.86;100927.22;5055671;28;20471;-72
2022/08/15 11:36:55;;;;;;;2.30;1.77;;;;;;;24.99;46.68;100926.69;5073579;28;20064;-70
2022/08/15 11:39:20;;;;;;;1.85;1.40;;;;;;;24.98;46.74;100934.06;5055171;28;20036;-70
2022/08/15 11:42:06;;;;;;;1.98;1.55;;;;;;;24.95;46.69;100931.06;5055107;28;20077;-70
2022/08/15 11:44:59;;;;;;;2.13;1.63;;;;;;;25.03;46.32;100925.06;5055229;28;20104;-69
2022/08/15 11:47:26;;;;;;;1.98;1.60;;;;;;;25.04;46.53;100926.69;5040746;28;20051;-70
2022/08/15 11:49:57;;;;;;;1.90;1.45;;;;;;;25.03;46.16;100930.53;5054577;28;20033;-71
2022/08/15 11:52:33;;;;;;;1.67;1.58;;;;;;;25.06;46.09;100932.69;5072707;28;20036;-71